Time;durP1;ratioP1;P1;durP2;ratioP2;P2;SDS_P1;SDS_P2;PMS_P1;PMS_P2;Temp;Humidity;BMP_temperature;BMP_pressure;BME280_temperature;BME280_humidity;BME280_pressure;Samples;Min_cycle;Max_cycle;Signal;HPM_P1;HPM_P2
2022/09/20 01:05:39;;;;;;;1.92;0.10;;;;;;;9.68;82.81;101275.75;1564161;24;20234;-83
2022/09/20 02:54:27;;;;;;;0.55;0.22;;;;;;;9.71;94.42;101519.94;4695251;24;20230;-81
2022/09/20 02:57:08;;;;;;;0.35;0.10;;;;;;;9.71;93.60;101528.84;4868689;29;20034;-82
2022/09/20 02:59:42;;;;;;;1.13;0.28;;;;;;;9.13;93.77;101441.44;4870550;29;20033;-83
2022/09/20 03:02:17;;;;;;;;;;;;;;;9.69;92.87;101528.16;4869464;29;20034;-83
2022/09/20 03:04:58;;;;;;;0.47;0.20;;;;;;;9.66;93.30;101552.69;4869052;29;19901;-83
2022/09/20 03:49:05;;;;;;;1.67;0.20;;;;;;;7.60;95.01;101404.72;5282721;23;20560;-82
2022/09/20 03:51:43;;;;;;;0.40;0.20;;;;;;;8.53;95.66;101568.84;4830275;29;20037;-82
2022/09/20 03:59:53;;;;;;;0.80;0.10;;;;;;;6.70;96.49;101348.25;5564251;24;19908;-83
2022/09/20 04:31:23;;;;;;;0.47;0.10;;;;;;;7.58;99.01;101599.56;2590404;24;20276;-82
2022/09/20 04:33:53;;;;;;;0.98;0.30;;;;;;;5.79;98.65;101351.31;4874295;29;20059;-81
2022/09/20 04:38:55;;;;;;;0.80;0.20;;;;;;;5.65;99.58;101293.97;4959059;23;20120;-82
2022/09/20 04:41:50;;;;;;;0.35;0.17;;;;;;;6.56;99.24;101454.81;4863136;29;20044;-81
2022/09/20 04:44:51;;;;;;;1.42;0.30;;;;;;;7.01;99.47;101528.63;4856727;29;20030;-83
2022/09/20 04:47:48;;;;;;;1.23;0.17;;;;;;;7.50;100.00;101619.94;4834025;29;20033;-82
2022/09/20 04:50:20;;;;;;;0.38;0.10;;;;;;;7.48;99.93;101627.31;4863349;29;20083;-84
2022/09/20 04:53:13;;;;;;;0.20;0.10;;;;;;;7.44;100.00;101625.94;5309582;24;20061;-82
2022/09/20 04:55:48;;;;;;;0.45;0.20;;;;;;;5.49;100.00;101331.19;4839159;29;20030;-81
2022/09/20 04:58:52;;;;;;;2.47;0.20;;;;;;;7.39;100.00;101633.59;4831296;29;20450;-81
2022/09/20 05:01:44;;;;;;;0.63;0.20;;;;;;;7.35;100.00;101642.09;4825107;29;20108;-80
2022/09/20 05:04:35;;;;;;;3.25;0.63;;;;;;;7.25;100.00;101642.19;4838766;29;20034;-80
2022/09/20 05:07:13;;;;;;;0.80;0.30;;;;;;;7.19;100.00;101650.88;4831873;29;20043;-80
2022/09/20 05:09:48;;;;;;;0.50;0.15;;;;;;;7.09;100.00;101642.94;4837743;29;20117;-81
2022/09/20 05:13:13;;;;;;;2.05;0.30;;;;;;;7.11;100.00;101648.97;4844237;29;20085;-82
2022/09/20 05:15:48;;;;;;;0.80;0.20;;;;;;;7.17;100.00;101656.38;4818927;29;20041;-81
2022/09/20 05:18:33;;;;;;;0.93;0.15;;;;;;;7.24;100.00;101661.94;4853389;29;20093;-81
2022/09/20 05:21:09;;;;;;;0.40;0.20;;;;;;;7.19;100.00;101649.03;4850730;29;20151;-81
2022/09/20 05:24:10;;;;;;;0.40;0.17;;;;;;;7.35;100.00;101668.88;4848899;29;20026;-79
2022/09/20 05:26:58;;;;;;;1.65;0.20;;;;;;;7.37;100.00;101667.72;4842972;29;20032;-81
2022/09/20 05:29:48;;;;;;;0.50;0.20;;;;;;;7.06;100.00;101617.31;4841556;29;20034;-82
2022/09/20 05:32:30;;;;;;;0.15;0.00;;;;;;;7.44;100.00;101668.78;4860837;29;20034;-83
2022/09/20 05:35:14;;;;;;;1.50;0.20;;;;;;;7.59;100.00;101673.56;4847043;29;20057;-80
2022/09/20 05:38:19;;;;;;;0.45;0.15;;;;;;;7.74;100.00;101686.19;4843630;29;20500;-80
2022/09/20 05:41:28;;;;;;;0.52;0.15;;;;;;;7.82;100.00;101669.34;4828635;29;20037;-80
2022/09/20 05:44:27;;;;;;;3.03;0.10;;;;;;;8.07;100.00;101682.84;4826347;29;20114;-80
2022/09/20 05:47:10;;;;;;;1.75;0.28;;;;;;;8.21;98.94;101680.41;4840241;29;20026;-80
2022/09/20 05:50:17;;;;;;;0.80;0.10;;;;;;;8.28;98.39;101679.72;4846989;29;20162;-80
2022/09/20 05:53:05;;;;;;;2.08;0.30;;;;;;;8.33;97.63;101658.63;4827896;29;20114;-80
2022/09/20 05:55:58;;;;;;;0.68;0.38;;;;;;;8.58;97.52;101689.94;4848346;29;20094;-80
2022/09/20 05:59:02;;;;;;;1.52;0.20;;;;;;;8.74;96.22;101697.19;4832947;29;20410;-80
2022/09/20 06:02:15;;;;;;;0.32;0.10;;;;;;;8.84;96.38;101708.59;4854627;29;20034;-80
2022/09/20 06:05:18;;;;;;;0.80;0.25;;;;;;;8.97;95.11;101707.25;4810894;29;20458;-81
2022/09/20 06:08:17;;;;;;;1.00;0.28;;;;;;;9.07;94.92;101708.78;4858390;29;20027;-81
2022/09/20 06:10:58;;;;;;;1.33;0.10;;;;;;;9.15;93.63;101708.78;4858247;29;20081;-80
2022/09/20 06:13:32;;;;;;;1.55;0.22;;;;;;;9.19;93.66;101714.66;4844123;29;20045;-81
2022/09/20 06:16:03;;;;;;;0.63;0.15;;;;;;;9.24;93.62;101706.94;4849094;29;20009;-82
2022/09/20 06:18:38;;;;;;;2.03;0.30;;;;;;;9.25;93.27;101700.56;4868072;29;20038;-82
2022/09/20 06:21:30;;;;;;;1.50;0.20;;;;;;;9.46;92.67;101713.44;4852303;29;20018;-82
2022/09/20 06:23:59;;;;;;;1.05;0.20;;;;;;;9.48;92.54;101707.94;4868998;29;20018;-82
2022/09/20 06:26:28;;;;;;;2.85;0.30;;;;;;;9.65;92.46;101726.53;4851701;29;20036;-82
2022/09/20 06:28:58;;;;;;;0.40;0.10;;;;;;;9.58;91.99;101705.91;4840457;29;20021;-82
2022/09/20 06:31:23;;;;;;;0.90;0.20;;;;;;;9.80;91.81;101729.38;4840636;29;20133;-82
2022/09/20 06:34:02;;;;;;;1.70;0.30;;;;;;;9.83;91.43;101720.97;4826130;29;20033;-82
2022/09/20 06:42:17;;;;;;;0.60;0.10;;;;;;;10.19;89.51;101738.50;4855916;29;20070;-81
2022/09/20 06:44:42;;;;;;;1.02;0.20;;;;;;;10.25;88.96;101745.88;4856378;29;20038;-81
2022/09/20 06:47:10;;;;;;;1.05;0.10;;;;;;;10.25;89.15;101735.09;4846640;29;20049;-81
2022/09/20 06:49:35;;;;;;;1.27;0.20;;;;;;;9.98;87.75;101693.38;4855372;29;20038;-80
2022/09/20 06:52:05;;;;;;;1.75;0.40;;;;;;;10.37;88.66;101767.91;4860033;29;20070;-81
2022/09/20 06:54:31;;;;;;;1.13;0.20;;;;;;;10.47;87.97;101758.59;4856943;29;20063;-81
2022/09/20 06:57:01;;;;;;;1.95;0.20;;;;;;;10.58;88.03;101762.75;4825165;29;20025;-80
2022/09/20 06:59:28;;;;;;;1.85;0.10;;;;;;;10.52;87.57;101748.13;4842396;29;20030;-82
2022/09/20 07:01:54;;;;;;;0.65;0.10;;;;;;;10.73;86.90;101771.75;4836247;29;20408;-81
2022/09/20 07:04:20;;;;;;;0.45;0.10;;;;;;;10.83;86.28;101771.53;4854943;29;20079;-81
2022/09/20 07:06:46;;;;;;;0.95;0.15;;;;;;;10.92;86.17;101783.09;4826069;29;20070;-81
2022/09/20 07:09:11;;;;;;;1.88;0.10;;;;;;;10.99;85.92;101784.03;4824856;29;20038;-81
2022/09/20 07:11:37;;;;;;;0.82;0.20;;;;;;;10.84;85.88;101751.66;4824747;29;20038;-82
2022/09/20 07:14:02;;;;;;;1.05;0.20;;;;;;;11.05;85.70;101784.16;4854242;29;20026;-82
2022/09/20 07:16:28;;;;;;;1.27;0.30;;;;;;;11.07;85.06;101792.09;4855884;29;20034;-81
2022/09/20 07:18:53;;;;;;;0.40;0.20;;;;;;;11.08;84.87;101799.16;4853969;29;20026;-81
2022/09/20 07:21:20;;;;;;;2.30;0.30;;;;;;;11.15;85.22;101789.31;4830521;29;20121;-81
2022/09/20 07:23:47;;;;;;;2.05;0.30;;;;;;;11.22;84.38;101792.97;4836732;29;20030;-81
2022/09/20 07:26:25;;;;;;;2.25;0.10;;;;;;;11.07;83.60;101775.94;4849817;29;20037;-81
2022/09/20 07:28:51;;;;;;;0.63;0.10;;;;;;;11.02;84.91;101772.91;4839562;29;20026;-81
2022/09/20 07:31:19;;;;;;;2.88;0.28;;;;;;;11.25;84.55;101792.63;4854135;29;20456;-82
2022/09/20 07:33:55;;;;;;;0.50;0.20;;;;;;;11.30;84.38;101794.78;4855516;29;20049;-81
2022/09/20 07:36:20;;;;;;;0.95;0.30;;;;;;;11.29;84.41;101779.63;4854781;29;20045;-81
2022/09/20 07:38:48;;;;;;;0.70;0.20;;;;;;;11.15;84.23;101740.84;4857619;29;20038;-82
2022/09/20 07:41:15;;;;;;;0.40;0.20;;;;;;;11.47;84.02;101782.88;4857054;29;20034;-82
2022/09/20 07:43:41;;;;;;;0.70;0.20;;;;;;;11.73;83.62;101800.50;4856192;29;20090;-82
2022/09/20 07:46:06;;;;;;;1.75;0.30;;;;;;;11.85;83.31;101798.22;4857383;29;20037;-81
2022/09/20 07:48:34;;;;;;;0.95;0.35;;;;;;;11.85;83.49;101800.94;4848336;29;20033;-81
2022/09/20 07:51:08;;;;;;;0.65;0.20;;;;;;;11.79;83.08;101802.47;4848522;29;20063;-82
2022/09/20 07:53:34;;;;;;;3.30;0.30;;;;;;;11.69;82.95;101808.13;4843793;29;20061;-81
2022/09/20 07:56:03;;;;;;;1.45;0.30;;;;;;;11.69;82.99;101799.22;4824480;29;20266;-81
2022/09/20 07:58:29;;;;;;;2.05;0.20;;;;;;;11.74;83.44;101799.47;4857688;29;20061;-81
2022/09/20 08:00:59;;;;;;;0.88;0.20;;;;;;;11.84;83.56;101800.09;4854490;29;20093;-82
2022/09/20 08:03:25;;;;;;;1.95;0.30;;;;;;;11.90;83.10;101782.34;4840291;29;20026;-81
2022/09/20 08:05:57;;;;;;;1.42;0.30;;;;;;;12.09;82.56;101814.19;4840082;29;20106;-81
2022/09/20 08:08:23;;;;;;;1.67;0.20;;;;;;;11.90;82.45;101799.38;4841350;29;20089;-82
2022/09/20 08:10:49;;;;;;;2.72;0.30;;;;;;;12.07;82.59;101826.19;4831073;29;20483;-82
2022/09/20 08:13:15;;;;;;;1.50;0.30;;;;;;;11.76;82.48;101765.94;4857270;29;20053;-82
2022/09/20 08:15:40;;;;;;;0.82;0.25;;;;;;;12.15;82.20;101832.34;4841562;29;20026;-82
2022/09/20 08:18:07;;;;;;;0.95;0.30;;;;;;;12.16;82.16;101823.22;4827168;29;20033;-81
2022/09/20 08:20:39;;;;;;;2.22;0.20;;;;;;;12.27;81.29;101823.78;4841693;29;20407;-82
2022/09/20 08:23:05;;;;;;;0.63;0.10;;;;;;;12.45;81.63;101835.91;4827810;29;20018;-82
2022/09/20 08:25:31;;;;;;;1.30;0.20;;;;;;;12.25;81.59;101828.50;4858774;29;20037;-82
2022/09/20 08:27:57;;;;;;;1.15;0.20;;;;;;;12.45;80.78;101841.28;4825130;29;20122;-81
2022/09/20 08:30:22;;;;;;;1.35;0.20;;;;;;;12.48;80.89;101842.75;4839373;29;20056;-82
2022/09/20 08:32:48;;;;;;;0.68;0.20;;;;;;;12.59;80.52;101853.09;4854947;29;20084;-81
2022/09/20 08:35:13;;;;;;;2.00;0.25;;;;;;;12.52;80.50;101852.19;4858913;29;20034;-82
2022/09/20 08:37:42;;;;;;;0.77;0.22;;;;;;;12.20;79.92;101778.66;4841347;29;20030;-81
2022/09/20 08:40:11;;;;;;;0.47;0.20;;;;;;;12.41;79.29;101812.13;4840734;29;20034;-82
2022/09/20 08:42:37;;;;;;;0.47;0.22;;;;;;;12.38;78.94;101786.38;4856501;29;20048;-81
2022/09/20 08:45:12;;;;;;;1.63;0.30;;;;;;;12.90;79.30;101844.78;4857991;29;20105;-82
2022/09/20 08:47:47;;;;;;;0.70;0.10;;;;;;;12.62;78.52;101814.94;4854205;29;20041;-82
2022/09/20 08:50:14;;;;;;;0.98;0.20;;;;;;;12.72;78.32;101825.44;4841849;29;20025;-82
2022/09/20 08:52:45;;;;;;;0.35;0.10;;;;;;;12.77;77.83;101822.16;4829320;29;20046;-82
2022/09/20 08:55:17;;;;;;;1.55;0.20;;;;;;;13.12;77.70;101847.53;4856163;29;20053;-81
2022/09/20 08:57:45;;;;;;;1.85;0.20;;;;;;;13.07;77.38;101844.56;4850205;29;20033;-82
2022/09/20 09:00:45;;;;;;;1.75;0.20;;;;;;;13.09;75.94;101843.34;4840160;29;20045;-82
2022/09/20 09:03:13;;;;;;;0.93;0.22;;;;;;;13.11;76.89;101838.59;4809089;29;20349;-81
2022/09/20 09:05:45;;;;;;;0.40;0.15;;;;;;;13.22;76.21;101847.25;4857363;29;20093;-82
2022/09/20 09:08:18;;;;;;;0.95;0.22;;;;;;;13.32;76.28;101847.78;4843687;29;20089;-81
2022/09/20 09:10:46;;;;;;;0.63;0.20;;;;;;;13.37;76.54;101854.28;4844416;29;20492;-82
2022/09/20 09:13:45;;;;;;;3.03;0.30;;;;;;;13.30;75.97;101852.53;4861767;29;20014;-81
2022/09/20 09:16:13;;;;;;;1.25;0.20;;;;;;;13.32;76.55;101835.09;4861983;29;20038;-82
2022/09/20 09:18:42;;;;;;;1.02;0.30;;;;;;;13.55;76.02;101861.13;4845772;29;20046;-82
2022/09/20 09:21:15;;;;;;;0.95;0.20;;;;;;;13.43;76.42;101836.47;4838359;29;20038;-82
2022/09/20 09:23:49;;;;;;;0.88;0.20;;;;;;;13.63;75.26;101861.81;4862514;29;20098;-81
2022/09/20 09:26:24;;;;;;;1.13;0.30;;;;;;;13.62;74.96;101838.53;4860921;29;20054;-82
2022/09/20 09:29:16;;;;;;;2.40;0.68;;;;;;;13.75;75.02;101858.63;4863794;29;20008;-81
2022/09/20 09:31:43;;;;;;;1.33;0.10;;;;;;;13.61;74.67;101828.75;4846583;29;20046;-82
2022/09/20 09:34:30;;;;;;;0.73;0.13;;;;;;;13.79;74.93;101859.91;4848661;29;20041;-81
2022/09/20 09:36:57;;;;;;;1.52;0.10;;;;;;;13.76;76.23;101857.56;4847759;29;20028;-81
2022/09/20 09:39:36;;;;;;;0.77;0.22;;;;;;;13.68;76.45;101847.75;4846641;29;20124;-82
2022/09/20 09:42:19;;;;;;;0.93;0.10;;;;;;;13.59;77.83;101863.25;4851204;29;20465;-82
2022/09/20 09:44:49;;;;;;;0.85;0.20;;;;;;;13.62;77.68;101862.88;4845282;29;20075;-82
2022/09/20 09:47:26;;;;;;;0.30;0.20;;;;;;;13.51;78.05;101857.13;4846884;29;20045;-81
2022/09/20 09:49:58;;;;;;;2.88;0.20;;;;;;;13.43;77.88;101868.06;4830355;29;20026;-81
2022/09/20 09:52:26;;;;;;;0.38;0.20;;;;;;;13.26;78.18;101851.25;4852452;29;20062;-81
2022/09/20 09:54:58;;;;;;;0.98;0.20;;;;;;;13.45;78.62;101874.97;4879447;29;20042;-81
2022/09/20 09:57:39;;;;;;;0.75;0.20;;;;;;;13.41;78.42;101865.56;4863441;29;20422;-81
2022/09/20 10:00:18;;;;;;;0.25;0.15;;;;;;;13.44;79.59;101870.56;4878597;29;20026;-81
2022/09/20 10:02:52;;;;;;;0.63;0.20;;;;;;;13.39;78.70;101873.03;4862086;29;20090;-81
2022/09/20 10:05:23;;;;;;;1.60;0.20;;;;;;;13.36;78.85;101876.94;4856158;29;20376;-80
2022/09/20 10:08:09;;;;;;;1.83;0.20;;;;;;;13.38;80.04;101871.34;4855372;29;20033;-79
2022/09/20 10:10:46;;;;;;;0.28;0.10;;;;;;;13.38;80.42;101876.78;4838073;29;20546;-80
2022/09/20 10:13:40;;;;;;;1.30;0.30;;;;;;;13.36;80.59;101866.13;4819705;29;20448;-80
2022/09/20 10:16:34;;;;;;;0.63;0.20;;;;;;;13.36;81.02;101859.88;4824674;29;20030;-81
2022/09/20 10:19:23;;;;;;;0.85;0.20;;;;;;;13.42;79.68;101864.53;4838876;29;20098;-79
2022/09/20 10:22:04;;;;;;;0.55;0.20;;;;;;;13.51;80.26;101866.09;4839299;29;20460;-80
2022/09/20 10:24:55;;;;;;;1.23;0.17;;;;;;;13.60;79.71;101881.13;4855530;29;20030;-80
2022/09/20 10:27:34;;;;;;;0.15;0.15;;;;;;;13.65;78.75;101877.88;4854850;29;20093;-80
2022/09/20 10:30:22;;;;;;;0.40;0.15;;;;;;;13.58;77.31;101864.28;4854465;29;20118;-80
2022/09/20 10:33:24;;;;;;;1.95;0.20;;;;;;;13.55;78.15;101853.03;4832521;29;20390;-80
2022/09/20 10:36:01;;;;;;;1.02;0.20;;;;;;;13.45;78.57;101837.13;4835334;29;20063;-80
2022/09/20 10:38:35;;;;;;;0.88;0.35;;;;;;;13.79;77.33;101876.97;4837581;29;20057;-80
2022/09/20 10:44:15;;;;;;;0.88;0.20;;;;;;;13.83;73.60;101883.66;4853895;29;20098;-80
2022/09/20 10:46:52;;;;;;;1.52;0.30;;;;;;;13.79;72.66;101887.78;4850876;29;20044;-80
2022/09/20 10:49:34;;;;;;;0.50;0.20;;;;;;;13.86;72.00;101883.25;4838303;29;20026;-80
2022/09/20 10:52:15;;;;;;;1.23;0.20;;;;;;;13.85;72.03;101876.19;4852728;29;20058;-79
2022/09/20 10:54:46;;;;;;;0.68;0.15;;;;;;;13.90;72.69;101889.13;4854127;29;20040;-80
2022/09/20 10:57:52;;;;;;;3.35;0.30;;;;;;;13.78;71.06;101858.22;4847796;29;20030;-80
2022/09/20 11:00:23;;;;;;;1.55;0.20;;;;;;;13.83;71.89;101893.63;4816199;29;20529;-81
2022/09/20 11:03:01;;;;;;;0.75;0.20;;;;;;;13.91;69.72;101903.47;4829664;29;20030;-81
2022/09/20 11:05:58;;;;;;;0.57;0.10;;;;;;;13.91;69.32;101882.69;4851980;29;20056;-80
2022/09/20 11:08:28;;;;;;;1.00;0.20;;;;;;;14.15;70.58;101903.09;4851846;29;20465;-81
2022/09/20 11:11:01;;;;;;;1.10;0.30;;;;;;;14.20;69.36;101895.19;4851761;29;20137;-81
2022/09/20 11:13:52;;;;;;;0.68;0.20;;;;;;;14.31;69.28;101907.38;4850901;29;20068;-81
2022/09/20 11:16:37;;;;;;;2.40;0.30;;;;;;;14.38;66.91;101902.84;4853365;29;20054;-81
2022/09/20 11:19:26;;;;;;;1.50;0.20;;;;;;;14.39;69.48;101903.69;4846615;29;20032;-81
2022/09/20 11:22:15;;;;;;;0.98;0.20;;;;;;;14.60;68.62;101909.03;4834146;29;20038;-80
2022/09/20 11:24:46;;;;;;;0.75;0.15;;;;;;;14.71;69.02;101899.53;4826383;29;20050;-81
2022/09/20 11:27:28;;;;;;;0.25;0.13;;;;;;;14.72;67.76;101903.91;4819047;29;20041;-80
2022/09/20 11:30:17;;;;;;;0.43;0.20;;;;;;;14.69;68.51;101893.47;4845613;29;20018;-80
2022/09/20 11:33:01;;;;;;;0.95;0.30;;;;;;;14.89;67.79;101910.69;4850239;29;20034;-80
2022/09/20 11:35:34;;;;;;;0.25;0.20;;;;;;;14.90;67.58;101912.38;4850395;29;20093;-80
2022/09/20 11:38:21;;;;;;;1.48;0.20;;;;;;;14.97;68.05;101913.22;4835238;29;20022;-80
2022/09/20 11:40:52;;;;;;;1.42;0.20;;;;;;;14.97;66.85;101912.41;4837971;29;20033;-80
2022/09/20 11:43:19;;;;;;;0.65;0.28;;;;;;;15.09;66.89;101910.78;4837606;29;20034;-81
2022/09/20 11:45:51;;;;;;;1.27;0.20;;;;;;;14.95;66.80;101877.34;4837948;29;20061;-81
2022/09/20 11:48:37;;;;;;;0.55;0.10;;;;;;;15.12;65.91;101917.66;4834789;29;20033;-81
2022/09/20 11:51:20;;;;;;;0.30;0.20;;;;;;;15.03;66.22;101922.41;4852749;29;20037;-80
2022/09/20 11:54:11;;;;;;;1.35;0.20;;;;;;;15.11;67.07;101919.53;4853004;29;20062;-80
2022/09/20 11:56:37;;;;;;;0.98;0.28;;;;;;;15.21;67.19;101916.47;4837227;29;20022;-80
2022/09/20 11:59:06;;;;;;;1.55;0.35;;;;;;;15.09;68.03;101910.78;4821008;29;20062;-80
2022/09/20 12:01:38;;;;;;;1.10;0.30;;;;;;;15.10;67.48;101900.75;4838232;29;20086;-81
2022/09/20 12:04:25;;;;;;;1.75;0.40;;;;;;;15.27;67.31;101918.38;4836154;29;20030;-81
2022/09/20 12:07:15;;;;;;;0.57;0.10;;;;;;;15.39;65.70;101916.72;4852925;29;20040;-80
2022/09/20 12:09:44;;;;;;;0.80;0.22;;;;;;;15.35;65.35;101923.59;4837707;29;20064;-81
2022/09/20 12:12:26;;;;;;;0.90;0.13;;;;;;;15.12;64.55;101893.28;4839019;29;20030;-81
2022/09/20 12:15:37;;;;;;;0.20;0.13;;;;;;;14.92;68.68;101899.44;4837548;29;20022;-81
2022/09/20 12:18:14;;;;;;;1.00;0.20;;;;;;;14.68;68.03;101876.41;4864433;29;20085;-80
2022/09/20 12:20:43;;;;;;;0.32;0.20;;;;;;;14.87;71.92;101929.03;4864209;29;20059;-81
2022/09/20 12:23:37;;;;;;;0.90;0.28;;;;;;;14.71;73.93;101924.75;4848590;29;20045;-81
2022/09/20 12:26:05;;;;;;;1.83;0.28;;;;;;;14.50;74.31;101905.81;4862800;29;20033;-80
2022/09/20 12:28:34;;;;;;;2.08;0.47;;;;;;;14.61;74.61;101934.28;4850404;29;20029;-81
2022/09/20 12:31:21;;;;;;;1.17;0.20;;;;;;;14.69;75.28;101931.41;4834247;29;20045;-80
2022/09/20 12:34:00;;;;;;;1.88;0.40;;;;;;;14.61;75.63;101932.41;4849472;29;20453;-80
2022/09/20 12:36:28;;;;;;;1.38;0.30;;;;;;;14.46;77.06;101916.22;4851991;29;20045;-81
2022/09/20 12:39:01;;;;;;;3.33;0.45;;;;;;;14.62;76.71;101930.53;4850313;29;20117;-80
2022/09/20 12:41:27;;;;;;;0.60;0.30;;;;;;;14.59;77.27;101942.59;4836201;29;20034;-81
2022/09/20 12:44:02;;;;;;;2.45;0.35;;;;;;;14.37;76.88;101903.88;4821149;29;20114;-80
2022/09/20 12:46:49;;;;;;;2.70;0.30;;;;;;;14.60;77.75;101933.41;4831776;29;20041;-81
2022/09/20 12:55:11;;;;;;;1.48;0.30;;;;;;;14.65;76.46;101947.22;4850510;29;20040;-81
2022/09/20 12:57:37;;;;;;;1.45;0.30;;;;;;;14.53;76.37;101924.41;4818834;29;20041;-81
2022/09/20 13:00:07;;;;;;;0.73;0.20;;;;;;;14.68;74.81;101935.16;4819391;29;20034;-81
2022/09/20 13:02:56;;;;;;;1.10;0.20;;;;;;;14.72;75.54;101944.56;4844427;29;20166;-81
2022/09/20 13:05:36;;;;;;;1.15;0.20;;;;;;;14.70;76.26;101954.75;4851838;29;20033;-81
2022/09/20 13:08:13;;;;;;;3.20;0.32;;;;;;;14.72;76.47;101952.69;4842325;29;20029;-81
2022/09/20 13:10:57;;;;;;;1.05;0.30;;;;;;;14.51;76.94;101908.38;4855727;29;20010;-81
2022/09/20 13:13:38;;;;;;;1.48;0.30;;;;;;;14.73;76.33;101940.81;4845435;29;20029;-81
2022/09/20 13:16:50;;;;;;;0.70;0.28;;;;;;;14.79;77.69;101942.72;4864442;29;20041;-81
2022/09/20 13:19:19;;;;;;;1.20;0.20;;;;;;;14.75;77.97;101942.28;4859806;29;20045;-80
2022/09/20 13:21:55;;;;;;;0.88;0.20;;;;;;;14.74;79.03;101937.09;4841988;29;20034;-81
2022/09/20 13:24:24;;;;;;;2.30;0.30;;;;;;;14.64;78.78;101918.47;4858421;29;20037;-81
2022/09/20 13:26:51;;;;;;;2.22;0.30;;;;;;;14.35;79.80;101889.69;4859600;29;20066;-81
2022/09/20 13:29:26;;;;;;;2.13;0.30;;;;;;;14.64;79.77;101925.75;4843478;29;20026;-81
2022/09/20 13:31:51;;;;;;;5.85;0.40;;;;;;;14.73;79.83;101944.34;4858786;29;20025;-81
2022/09/20 13:34:20;;;;;;;1.55;0.28;;;;;;;14.65;80.42;101933.69;4857771;29;20065;-81
2022/09/20 13:36:47;;;;;;;1.35;0.30;;;;;;;14.73;81.03;101936.22;4843864;29;20068;-81
2022/09/20 13:39:28;;;;;;;1.95;0.20;;;;;;;14.78;80.27;101947.31;4857775;29;20030;-81
2022/09/20 13:42:00;;;;;;;1.50;0.77;;;;;;;14.80;80.69;101938.97;4859491;29;20037;-81
2022/09/20 13:44:28;;;;;;;0.63;0.20;;;;;;;14.72;80.89;101933.72;4856820;29;20025;-81
2022/09/20 13:46:53;;;;;;;0.88;0.30;;;;;;;14.76;80.67;101946.66;4845070;29;20069;-81
2022/09/20 13:49:23;;;;;;;1.88;0.20;;;;;;;14.73;80.04;101930.81;4843842;29;20055;-81
2022/09/20 13:51:49;;;;;;;1.65;0.43;;;;;;;14.85;80.71;101949.22;4827644;29;20030;-81
2022/09/20 13:54:29;;;;;;;0.98;0.30;;;;;;;14.77;80.61;101953.78;4842878;29;20061;-81
2022/09/20 13:57:01;;;;;;;1.95;0.60;;;;;;;14.78;81.18;101938.34;4842378;29;20057;-81
2022/09/20 13:59:34;;;;;;;0.60;0.20;;;;;;;14.63;80.52;101910.53;4842254;29;20041;-81
2022/09/20 14:02:00;;;;;;;1.13;0.20;;;;;;;14.91;79.87;101954.69;4843043;29;20116;-81
2022/09/20 14:04:28;;;;;;;1.58;0.35;;;;;;;15.03;79.97;101953.09;4828857;29;20140;-80
2022/09/20 14:06:56;;;;;;;0.85;0.25;;;;;;;15.09;78.72;101951.44;4856771;29;20026;-80
2022/09/20 14:09:33;;;;;;;1.55;0.50;;;;;;;15.09;78.95;101953.31;4861195;29;20460;-81
2022/09/20 14:11:59;;;;;;;1.73;0.30;;;;;;;14.95;80.12;101947.81;4859949;29;20093;-80
2022/09/20 14:14:26;;;;;;;0.95;0.30;;;;;;;14.88;81.98;101943.41;4827826;29;20037;-81
2022/09/20 14:16:55;;;;;;;1.95;0.30;;;;;;;14.78;81.68;101947.31;4841709;29;20034;-81
2022/09/20 14:19:27;;;;;;;1.67;0.30;;;;;;;14.73;82.21;101944.34;4856371;29;20429;-81
2022/09/20 14:21:53;;;;;;;1.42;0.30;;;;;;;14.74;80.14;101946.03;4843266;29;20075;-81
2022/09/20 14:24:26;;;;;;;1.02;0.30;;;;;;;14.70;82.12;101952.91;4840891;29;20429;-80
2022/09/20 14:27:03;;;;;;;3.08;0.40;;;;;;;14.78;82.08;101950.03;4857700;29;20029;-81
2022/09/20 14:29:46;;;;;;;2.22;0.35;;;;;;;14.76;82.72;101956.66;4856333;29;20105;-81
2022/09/20 14:32:17;;;;;;;0.75;0.30;;;;;;;14.69;83.89;101959.34;4850996;29;20085;-81
2022/09/20 14:35:01;;;;;;;1.45;0.25;;;;;;;14.59;83.25;101955.31;4839780;29;20416;-81
2022/09/20 14:37:43;;;;;;;1.45;0.22;;;;;;;14.61;83.43;101969.50;4854254;29;20030;-81
2022/09/20 14:40:20;;;;;;;1.40;0.30;;;;;;;14.60;82.39;101973.22;4856644;29;20090;-81
2022/09/20 14:42:49;;;;;;;0.93;0.30;;;;;;;14.52;83.30;101968.81;4856323;29;20030;-81
2022/09/20 14:45:22;;;;;;;1.48;0.30;;;;;;;14.50;81.54;101976.25;4857648;29;20034;-80
2022/09/20 14:48:25;;;;;;;1.58;0.30;;;;;;;14.54;81.34;101983.81;4856724;29;20090;-81
2022/09/20 14:51:16;;;;;;;2.75;0.28;;;;;;;14.51;82.36;101972.56;4855501;29;20043;-81
2022/09/20 14:53:48;;;;;;;1.08;0.30;;;;;;;14.36;82.46;101953.63;4856727;29;20080;-81
2022/09/20 14:56:15;;;;;;;1.77;0.40;;;;;;;14.22;81.97;101949.16;4856829;29;20045;-82
2022/09/20 14:59:04;;;;;;;4.65;0.40;;;;;;;14.45;83.75;101984.13;4842315;29;20045;-81
2022/09/20 15:01:30;;;;;;;2.03;0.40;;;;;;;14.49;85.75;101985.41;4857682;29;20046;-81
2022/09/20 15:03:56;;;;;;;1.38;0.30;;;;;;;14.45;82.68;101989.53;4857245;29;20034;-81
2022/09/20 15:06:23;;;;;;;2.40;0.38;;;;;;;14.46;82.48;101992.03;4825972;29;20030;-82
2022/09/20 15:08:48;;;;;;;2.00;0.40;;;;;;;14.43;82.43;101991.59;4841538;29;20064;-82
2022/09/20 15:11:15;;;;;;;0.68;0.30;;;;;;;14.30;83.25;101971.53;4840214;29;20045;-82
2022/09/20 15:13:41;;;;;;;1.13;0.30;;;;;;;14.45;83.23;101984.97;4851462;29;20042;-80
2022/09/20 15:16:06;;;;;;;1.77;0.38;;;;;;;14.41;80.35;101999.09;4855403;29;20476;-81
2022/09/20 15:18:39;;;;;;;2.90;0.52;;;;;;;14.46;81.63;102004.75;4870804;29;20044;-81
2022/09/20 15:21:04;;;;;;;2.83;0.30;;;;;;;14.45;81.34;101994.97;4855412;29;20049;-81
2022/09/20 15:23:30;;;;;;;1.50;0.25;;;;;;;14.41;81.88;101983.69;4855321;29;20034;-81
2022/09/20 15:25:56;;;;;;;0.85;0.20;;;;;;;14.43;81.61;101997.84;4855686;29;20040;-81
2022/09/20 15:28:21;;;;;;;1.85;0.30;;;;;;;14.08;80.55;101951.75;4841167;29;20037;-80
2022/09/20 15:30:51;;;;;;;3.53;0.30;;;;;;;14.21;80.32;101971.84;4839618;29;20030;-81
2022/09/20 15:33:19;;;;;;;1.17;0.28;;;;;;;14.10;81.97;101955.09;4856679;29;20033;-80
2022/09/20 15:35:45;;;;;;;0.98;0.30;;;;;;;14.48;81.95;102008.94;4843067;29;20040;-81
2022/09/20 15:38:11;;;;;;;0.90;0.10;;;;;;;14.45;81.75;102003.91;4845188;29;20014;-82
2022/09/20 15:40:41;;;;;;;1.42;0.20;;;;;;;14.43;81.44;102003.25;4842398;29;20046;-81
2022/09/20 15:43:10;;;;;;;0.65;0.20;;;;;;;14.19;81.34;101969.31;4856718;29;20053;-81
2022/09/20 15:45:50;;;;;;;0.73;0.20;;;;;;;14.39;81.51;102004.69;4840693;29;20034;-81
2022/09/20 15:48:20;;;;;;;0.82;0.20;;;;;;;14.39;80.27;102012.81;4857342;29;20033;-82
2022/09/20 15:51:06;;;;;;;1.30;0.30;;;;;;;14.33;81.64;102000.06;4842145;29;20022;-81
2022/09/20 15:53:34;;;;;;;0.52;0.17;;;;;;;14.39;81.25;102015.53;4857966;29;20488;-81
2022/09/20 15:56:01;;;;;;;1.45;0.30;;;;;;;14.42;81.95;102001.59;4841822;29;20024;-81
2022/09/20 15:58:33;;;;;;;1.25;0.20;;;;;;;14.41;80.49;102023.47;4859007;29;20177;-81
2022/09/20 16:01:06;;;;;;;2.67;0.57;;;;;;;14.38;81.05;102022.00;4842719;29;20104;-82
2022/09/20 16:03:33;;;;;;;0.77;0.20;;;;;;;14.35;82.60;102011.53;4844227;29;20457;-81
2022/09/20 16:05:59;;;;;;;0.90;0.30;;;;;;;14.43;82.53;102022.22;4860159;29;20038;-81
2022/09/20 16:08:27;;;;;;;1.90;0.30;;;;;;;14.39;79.95;102029.06;4859266;29;20026;-81
2022/09/20 16:10:57;;;;;;;0.57;0.17;;;;;;;14.27;80.67;102006.25;4859730;29;20034;-81
2022/09/20 16:13:22;;;;;;;0.93;0.22;;;;;;;14.28;81.40;102007.94;4832883;29;20058;-81
2022/09/20 16:15:53;;;;;;;1.63;0.25;;;;;;;14.31;80.11;102015.69;4861874;29;20041;-82
2022/09/20 16:21:06;;;;;;;0.32;0.20;;;;;;;14.32;80.32;102030.88;4829798;29;20099;-81
2022/09/20 16:23:33;;;;;;;3.58;0.30;;;;;;;14.37;80.24;102039.28;4812447;29;20114;-81
2022/09/20 16:25:58;;;;;;;1.75;0.30;;;;;;;14.34;80.52;102036.94;4833786;29;20033;-82
2022/09/20 16:28:23;;;;;;;1.27;0.20;;;;;;;14.18;81.56;102020.97;4846052;29;20038;-82
2022/09/20 16:30:56;;;;;;;0.95;0.20;;;;;;;14.28;82.29;102038.56;4845037;29;20030;-82
2022/09/20 16:33:21;;;;;;;0.70;0.20;;;;;;;14.26;81.34;102046.03;4846187;29;20010;-82